Time;durP1;ratioP1;P1;durP2;ratioP2;P2;SDS_P1;SDS_P2;PMS_P1;PMS_P2;Temp;Humidity;BMP_temperature;BMP_pressure;BME280_temperature;BME280_humidity;BME280_pressure;Samples;Min_cycle;Max_cycle;Signal;HPM_P1;HPM_P2
2020/12/19 00:00:33;;;;;;;9.10;8.20;;;10.90;36.50;;;;;;5050521;28;20239;-70
2020/12/19 00:02:59;;;;;;;8.20;7.40;;;10.80;36.80;;;;;;5050472;28;20200;-70
2020/12/19 00:05:25;;;;;;;10.30;7.53;;;10.70;37.60;;;;;;5050616;28;20168;-68
2020/12/19 00:07:50;;;;;;;6.80;6.30;;;10.90;37.50;;;;;;5050369;28;20437;-71
2020/12/19 00:10:16;;;;;;;6.70;6.00;;;10.90;36.40;;;;;;5050527;28;20183;-70
2020/12/19 00:12:45;;;;;;;7.53;6.83;;;11.00;36.30;;;;;;5050470;28;20349;-71
2020/12/19 00:15:12;;;;;;;6.83;6.37;;;10.90;36.20;;;;;;5050524;28;20176;-69
2020/12/19 00:17:38;;;;;;;6.33;5.83;;;11.00;36.10;;;;;;5050399;28;20905;-71
2020/12/19 00:20:04;;;;;;;6.70;6.10;;;10.90;36.10;;;;;;5050457;28;20462;-71
2020/12/19 00:22:29;;;;;;;7.67;6.97;;;10.80;36.40;;;;;;5050349;28;20666;-68
2020/12/19 00:24:54;;;;;;;6.00;5.40;;;10.90;36.50;;;;;;5050694;28;20168;-71
2020/12/19 00:27:20;;;;;;;6.50;6.00;;;10.90;36.20;;;;;;5050346;28;20253;-71
2020/12/19 00:29:45;;;;;;;6.97;5.77;;;11.00;36.30;;;;;;5050423;28;20168;-70
2020/12/19 00:32:11;;;;;;;6.50;6.00;;;10.90;36.00;;;;;;5050971;28;20534;-70
2020/12/19 00:34:37;;;;;;;5.90;5.40;;;10.90;36.10;;;;;;5054304;28;20650;-70
2020/12/19 00:37:03;;;;;;;6.10;5.60;;;10.90;36.50;;;;;;5053981;28;20164;-71
2020/12/19 00:39:28;;;;;;;6.37;5.67;;;10.80;36.20;;;;;;5053990;28;20708;-71
2020/12/19 00:41:54;;;;;;;5.63;5.20;;;10.80;36.60;;;;;;5054047;28;20278;-70
2020/12/19 00:44:20;;;;;;;7.03;6.43;;;10.80;36.80;;;;;;5053918;28;20233;-70
2020/12/19 00:46:49;;;;;;;6.87;6.23;;;10.90;36.70;;;;;;5053978;28;20217;-70
2020/12/19 00:49:15;;;;;;;6.20;5.70;;;10.80;36.90;;;;;;5053789;28;20210;-70
2020/12/19 00:51:40;;;;;;;7.23;6.60;;;10.80;37.10;;;;;;5053864;28;20419;-71
2020/12/19 00:54:06;;;;;;;6.20;5.80;;;10.80;36.70;;;;;;5054064;28;20207;-69
2020/12/19 00:56:31;;;;;;;7.93;7.20;;;10.80;36.90;;;;;;5053864;28;20179;-71
2020/12/19 00:58:57;;;;;;;7.43;6.83;;;10.80;36.70;;;;;;5053640;28;20538;-71
2020/12/19 01:01:24;;;;;;;6.07;5.60;;;10.60;36.60;;;;;;5053611;28;20286;-71
2020/12/19 01:03:52;;;;;;;6.17;5.73;;;10.60;37.50;;;;;;5053743;28;20204;-69
2020/12/19 01:06:19;;;;;;;5.50;5.10;;;10.50;37.00;;;;;;5053615;28;20889;-70
2020/12/19 01:08:45;;;;;;;6.10;5.60;;;10.60;36.90;;;;;;5053426;28;20421;-68
2020/12/19 01:11:15;;;;;;;5.93;5.53;;;10.70;36.70;;;;;;5053515;28;20407;-71
2020/12/19 01:13:41;;;;;;;6.00;5.50;;;10.40;37.50;;;;;;5053493;28;20434;-68
2020/12/19 01:16:06;;;;;;;6.90;6.30;;;10.30;37.80;;;;;;5053465;28;20407;-67
2020/12/19 01:18:32;;;;;;;6.20;5.70;;;10.30;38.30;;;;;;5053304;28;20421;-71
2020/12/19 01:20:57;;;;;;;6.20;5.70;;;10.40;37.80;;;;;;5053229;28;20196;-71
2020/12/19 01:23:23;;;;;;;5.60;5.20;;;10.40;37.30;;;;;;5053071;28;20211;-69
2020/12/19 01:25:48;;;;;;;7.53;5.00;;;10.50;37.30;;;;;;5053297;28;20172;-71
2020/12/19 01:28:14;;;;;;;6.00;5.50;;;10.40;37.90;;;;;;5053050;28;20782;-70
2020/12/19 01:30:39;;;;;;;4.90;4.50;;;10.40;38.00;;;;;;5053059;28;20211;-69
2020/12/19 01:33:05;;;;;;;6.40;5.90;;;10.50;37.40;;;;;;5053053;28;20222;-70
2020/12/19 01:35:30;;;;;;;5.43;5.03;;;10.60;37.10;;;;;;5051723;28;20201;-70
2020/12/19 01:37:56;;;;;;;5.10;4.70;;;10.60;36.80;;;;;;5052816;28;20202;-70
2020/12/19 01:40:21;;;;;;;5.53;5.03;;;10.60;36.80;;;;;;5052790;28;20238;-70
2020/12/19 01:42:47;;;;;;;6.60;5.20;;;10.70;36.80;;;;;;5052788;28;20192;-69
2020/12/19 01:45:12;;;;;;;6.03;5.40;;;10.70;37.00;;;;;;5052082;28;20650;-70
2020/12/19 01:47:38;;;;;;;5.03;4.63;;;10.70;36.90;;;;;;5052523;28;20192;-69
2020/12/19 01:50:06;;;;;;;6.27;5.77;;;10.60;36.70;;;;;;5052705;28;20176;-70
2020/12/19 01:52:32;;;;;;;6.60;6.00;;;10.60;37.90;;;;;;5052592;28;20241;-70
2020/12/19 01:54:58;;;;;;;6.50;5.33;;;10.60;36.80;;;;;;5052708;28;20440;-71
2020/12/19 01:57:30;;;;;;;5.43;5.03;;;10.60;36.80;;;;;;5052251;28;20418;-70
2020/12/19 01:59:56;;;;;;;6.27;5.77;;;10.50;37.20;;;;;;5052521;28;20928;-71
2020/12/19 02:02:23;;;;;;;5.80;5.30;;;10.50;36.90;;;;;;5052430;28;20402;-69
2020/12/19 02:04:49;;;;;;;5.20;4.90;;;10.60;36.80;;;;;;5052479;28;20180;-71
2020/12/19 02:07:15;;;;;;;5.60;5.20;;;10.60;36.90;;;;;;5052346;28;20460;-71
2020/12/19 02:09:41;;;;;;;6.67;6.17;;;10.50;37.10;;;;;;5052688;28;20168;-71
2020/12/19 02:12:09;;;;;;;6.37;5.87;;;10.50;36.80;;;;;;5052600;28;20430;-68
2020/12/19 02:14:35;;;;;;;5.97;5.57;;;10.40;37.00;;;;;;5052630;28;20407;-68
2020/12/19 02:17:11;;;;;;;5.27;4.87;;;10.30;37.20;;;;;;5052353;28;20489;-68
2020/12/19 02:19:37;;;;;;;5.60;5.20;;;10.30;37.30;;;;;;5052644;28;20896;-67
2020/12/19 02:22:05;;;;;;;6.20;5.70;;;10.30;37.50;;;;;;5052194;28;20407;-68
2020/12/19 02:24:31;;;;;;;8.57;7.77;;;10.40;37.40;;;;;;5052413;28;20415;-69
2020/12/19 02:26:58;;;;;;;5.27;4.87;;;10.30;37.40;;;;;;5051984;28;20398;-69
2020/12/19 02:29:25;;;;;;;5.97;4.83;;;10.30;37.30;;;;;;5052039;28;20398;-68
2020/12/19 02:31:52;;;;;;;7.67;7.00;;;10.30;37.20;;;;;;5051808;28;20445;-69
2020/12/19 02:34:17;;;;;;;5.90;5.40;;;10.40;36.80;;;;;;5051818;28;20512;-68
2020/12/19 02:36:43;;;;;;;5.77;5.27;;;10.40;37.00;;;;;;5051876;28;20521;-68
2020/12/19 02:39:09;;;;;;;6.03;5.50;;;10.50;37.00;;;;;;5051596;28;20523;-68
2020/12/19 02:41:43;;;;;;;5.63;5.23;;;10.40;36.80;;;;;;5051666;28;20461;-68
2020/12/19 02:44:15;;;;;;;4.97;4.57;;;10.40;36.20;;;;;;5051623;28;20438;-68
2020/12/19 02:46:41;;;;;;;5.37;4.97;;;10.50;36.60;;;;;;5051717;28;20394;-69
2020/12/19 02:49:07;;;;;;;5.50;5.00;;;10.50;36.80;;;;;;5051464;28;20417;-68
2020/12/19 02:51:32;;;;;;;5.30;4.90;;;10.50;36.80;;;;;;5051557;28;20421;-68
2020/12/19 02:53:58;;;;;;;6.50;5.90;;;10.50;36.90;;;;;;5051488;28;20795;-68
2020/12/19 02:56:24;;;;;;;4.40;4.10;;;10.50;36.80;;;;;;5051475;28;20238;-70
2020/12/19 02:58:49;;;;;;;5.97;5.47;;;10.40;36.60;;;;;;5051215;28;20176;-68
2020/12/19 03:01:15;;;;;;;6.03;5.43;;;10.50;36.80;;;;;;5051397;28;20678;-69
2020/12/19 03:03:40;;;;;;;5.17;4.77;;;10.30;36.50;;;;;;5051292;28;20188;-68
2020/12/19 03:06:06;;;;;;;5.07;4.77;;;10.30;36.70;;;;;;5051398;28;20222;-68
2020/12/19 03:08:31;;;;;;;5.33;4.93;;;10.40;37.20;;;;;;5051217;28;20196;-68
2020/12/19 03:10:57;;;;;;;5.40;4.90;;;10.40;36.90;;;;;;5051311;28;20183;-69
2020/12/19 03:13:22;;;;;;;5.93;4.60;;;10.40;36.50;;;;;;5051203;28;20231;-67
2020/12/19 03:15:48;;;;;;;5.70;5.20;;;10.30;36.90;;;;;;5051259;28;20262;-68
2020/12/19 03:18:13;;;;;;;6.90;5.70;;;10.40;37.10;;;;;;5051092;28;20617;-69
2020/12/19 03:20:39;;;;;;;4.93;4.50;;;10.40;36.50;;;;;;5051147;28;20200;-67
2020/12/19 03:23:04;;;;;;;5.30;4.80;;;10.40;36.70;;;;;;5051016;28;20212;-68
2020/12/19 03:25:30;;;;;;;5.00;4.70;;;10.40;36.60;;;;;;5051252;28;20176;-68
2020/12/19 03:27:56;;;;;;;5.10;4.57;;;10.40;36.70;;;;;;5050889;28;20172;-70
2020/12/19 03:30:25;;;;;;;5.47;4.50;;;10.30;36.90;;;;;;5051059;28;20337;-68
2020/12/19 03:32:55;;;;;;;4.97;4.67;;;10.40;36.80;;;;;;5050981;28;20202;-68
2020/12/19 03:35:21;;;;;;;5.10;4.80;;;10.30;36.80;;;;;;5050949;28;20505;-70
2020/12/19 03:37:47;;;;;;;4.67;4.37;;;10.30;36.80;;;;;;5050716;28;20495;-69
2020/12/19 03:40:12;;;;;;;4.60;4.30;;;10.40;36.80;;;;;;5050684;28;20553;-68
2020/12/19 03:42:38;;;;;;;5.07;4.77;;;10.30;36.80;;;;;;5050737;28;20546;-69
2020/12/19 03:45:07;;;;;;;4.40;4.10;;;10.30;36.70;;;;;;5050833;28;20199;-68
2020/12/19 03:47:33;;;;;;;5.13;4.73;;;10.40;36.30;;;;;;5050633;28;20643;-67
2020/12/19 03:50:02;;;;;;;4.57;4.17;;;10.40;36.30;;;;;;5050785;28;20416;-68
2020/12/19 03:52:28;;;;;;;4.87;4.47;;;10.40;36.30;;;;;;5050773;28;20245;-67
2020/12/19 03:54:53;;;;;;;5.00;4.40;;;10.30;36.60;;;;;;5050749;28;20772;-68
2020/12/19 03:57:19;;;;;;;5.53;5.07;;;10.30;36.80;;;;;;5050455;28;20175;-67
2020/12/19 03:59:44;;;;;;;5.87;5.47;;;10.30;36.70;;;;;;5050680;28;20168;-69
2020/12/19 04:02:10;;;;;;;6.13;5.63;;;10.20;36.60;;;;;;5050456;28;20704;-67
2020/12/19 04:04:36;;;;;;;6.13;5.00;;;10.20;37.60;;;;;;5050517;28;20165;-68
2020/12/19 04:07:02;;;;;;;7.47;6.77;;;10.00;36.60;;;;;;5050867;28;20897;-67
2020/12/19 04:09:28;;;;;;;7.33;5.80;;;10.00;36.90;;;;;;5054524;28;20172;-68
2020/12/19 04:11:54;;;;;;;7.20;6.43;;;10.00;37.80;;;;;;5054515;28;20789;-68
2020/12/19 04:14:19;;;;;;;7.40;6.80;;;10.00;37.20;;;;;;5054447;28;20200;-67
2020/12/19 04:16:48;;;;;;;6.50;5.90;;;10.00;37.40;;;;;;5054496;28;20180;-68
2020/12/19 04:19:14;;;;;;;6.97;6.10;;;10.10;37.20;;;;;;5054364;28;20206;-67
2020/12/19 04:21:40;;;;;;;7.47;6.87;;;10.10;37.50;;;;;;5054399;28;20457;-67
2020/12/19 04:24:05;;;;;;;7.53;6.83;;;10.20;37.40;;;;;;5054235;28;20445;-67
2020/12/19 04:26:31;;;;;;;6.50;5.90;;;10.10;37.10;;;;;;5054495;28;20259;-70
2020/12/19 04:28:56;;;;;;;8.13;7.50;;;10.10;37.00;;;;;;5054363;28;20230;-67
2020/12/19 04:31:22;;;;;;;10.23;7.50;;;10.10;36.80;;;;;;5054587;28;20206;-68
2020/12/19 04:33:48;;;;;;;8.93;8.03;;;10.10;37.20;;;;;;5054307;28;20721;-67
2020/12/19 04:36:13;;;;;;;7.77;6.97;;;10.20;37.00;;;;;;5054328;28;20191;-68
2020/12/19 04:38:39;;;;;;;7.90;7.30;;;10.20;36.80;;;;;;5053920;28;20625;-67
2020/12/19 04:41:05;;;;;;;8.70;7.90;;;10.20;36.70;;;;;;5054026;28;20242;-67
2020/12/19 04:43:31;;;;;;;7.30;6.70;;;10.30;36.80;;;;;;5054005;28;20678;-67
2020/12/19 04:45:57;;;;;;;7.23;6.70;;;10.30;36.50;;;;;;5054015;28;20773;-68
2020/12/19 04:48:24;;;;;;;8.03;7.43;;;10.30;36.50;;;;;;5053871;28;20407;-67
2020/12/19 04:50:50;;;;;;;6.70;6.10;;;10.20;36.80;;;;;;5053742;28;20410;-68
2020/12/19 04:53:18;;;;;;;8.13;7.33;;;10.20;37.00;;;;;;5053691;28;20430;-69
2020/12/19 04:55:44;;;;;;;8.30;7.17;;;9.90;38.00;;;;;;5053817;28;20957;-68
2020/12/19 04:58:12;;;;;;;6.77;6.20;;;10.00;37.50;;;;;;5053544;28;20414;-68
2020/12/19 05:00:38;;;;;;;7.90;7.20;;;9.90;38.00;;;;;;5053661;28;20482;-67
2020/12/19 05:03:04;;;;;;;8.27;7.43;;;9.90;38.50;;;;;;5053586;28;20912;-68
2020/12/19 05:05:30;;;;;;;7.93;7.23;;;10.00;37.30;;;;;;5053623;28;20501;-68
2020/12/19 05:07:55;;;;;;;7.43;6.83;;;10.00;37.00;;;;;;5053333;28;20247;-70
2020/12/19 05:10:21;;;;;;;6.97;6.40;;;10.10;36.70;;;;;;5053650;28;20258;-68
2020/12/19 05:12:54;;;;;;;8.83;8.13;;;10.20;36.70;;;;;;5053414;28;20200;-68
2020/12/19 05:15:21;;;;;;;8.10;7.50;;;10.10;36.70;;;;;;5050275;28;20334;-68
2020/12/19 05:17:54;;;;;;;9.67;7.60;;;10.20;36.80;;;;;;5042880;28;20974;-69
2020/12/19 05:20:21;;;;;;;8.43;7.63;;;10.20;36.60;;;;;;5032183;28;20466;-67
2020/12/19 05:22:51;;;;;;;8.50;7.80;;;10.20;36.50;;;;;;5036318;28;20447;-68
2020/12/19 05:25:18;;;;;;;8.93;8.13;;;10.10;36.50;;;;;;5050381;28;20414;-68
2020/12/19 05:27:44;;;;;;;8.47;7.73;;;10.10;36.60;;;;;;5053024;28;20406;-67
2020/12/19 05:30:11;;;;;;;11.20;7.97;;;10.10;36.70;;;;;;5053241;28;20824;-67
2020/12/19 05:32:46;;;;;;;9.90;8.90;;;9.70;38.10;;;;;;5053120;28;20800;-69
2020/12/19 05:35:13;;;;;;;7.50;6.90;;;9.70;38.80;;;;;;5052391;28;20410;-68
2020/12/19 05:37:39;;;;;;;9.63;7.60;;;9.90;38.60;;;;;;5052117;28;20497;-69
2020/12/19 05:40:12;;;;;;;8.63;7.87;;;9.90;38.20;;;;;;5052895;28;21019;-68
2020/12/19 05:42:39;;;;;;;8.40;7.60;;;10.00;37.60;;;;;;5052882;28;20681;-67
2020/12/19 05:45:16;;;;;;;8.37;7.57;;;10.00;37.10;;;;;;5052841;28;20419;-67
2020/12/19 05:47:41;;;;;;;8.50;7.50;;;10.00;36.60;;;;;;5052656;28;20414;-67
2020/12/19 05:50:08;;;;;;;9.37;8.20;;;10.00;37.20;;;;;;5052499;28;20419;-70
2020/12/19 05:52:36;;;;;;;9.03;8.20;;;9.90;38.30;;;;;;5048806;28;20192;-68
2020/12/19 05:55:05;;;;;;;9.37;8.40;;;9.90;37.90;;;;;;5052252;28;20485;-67
2020/12/19 05:57:34;;;;;;;8.47;7.77;;;9.80;38.10;;;;;;5052157;28;20414;-69
2020/12/19 06:00:00;;;;;;;9.33;8.43;;;9.80;38.30;;;;;;5052255;28;20414;-70
2020/12/19 06:02:29;;;;;;;9.40;8.43;;;9.80;38.70;;;;;;5052277;28;21079;-68
2020/12/19 06:05:00;;;;;;;9.97;9.00;;;9.90;38.10;;;;;;5052400;28;20438;-69
2020/12/19 06:07:28;;;;;;;8.27;7.53;;;10.00;36.90;;;;;;5051907;28;20781;-68
2020/12/19 06:09:53;;;;;;;9.13;8.23;;;10.00;36.60;;;;;;5046885;28;20414;-68
2020/12/19 06:12:36;;;;;;;9.80;9.00;;;10.00;36.60;;;;;;5034960;28;20442;-68
2020/12/19 06:15:03;;;;;;;8.50;7.80;;;9.90;37.40;;;;;;5033822;28;20856;-68
2020/12/19 06:17:36;;;;;;;9.27;8.40;;;10.00;36.40;;;;;;5035185;28;20443;-69
2020/12/19 06:20:04;;;;;;;8.83;7.93;;;9.90;37.40;;;;;;5033779;28;20442;-69
2020/12/19 06:22:30;;;;;;;9.43;8.63;;;9.90;37.20;;;;;;5034169;28;20458;-69
2020/12/19 06:24:56;;;;;;;8.47;7.70;;;9.80;37.80;;;;;;5032763;28;20438;-69
2020/12/19 06:27:22;;;;;;;9.13;8.43;;;9.60;38.00;;;;;;5034055;28;20503;-69
2020/12/19 06:29:48;;;;;;;10.10;9.00;;;9.60;38.40;;;;;;5043989;28;20882;-68
2020/12/19 06:32:22;;;;;;;9.10;8.40;;;9.60;38.30;;;;;;5032813;28;20224;-69
2020/12/19 06:35:05;;;;;;;9.80;9.00;;;9.70;38.30;;;;;;5033419;28;20479;-68
2020/12/19 06:37:33;;;;;;;8.53;7.90;;;9.70;38.10;;;;;;5034921;28;21255;-67
2020/12/19 06:40:18;;;;;;;11.80;8.70;;;9.80;38.00;;;;;;5032852;28;21071;-67
2020/12/19 06:42:45;;;;;;;9.37;8.47;;;9.70;37.90;;;;;;5033127;28;20858;-68
2020/12/19 06:45:21;;;;;;;8.40;7.80;;;9.80;37.70;;;;;;5033080;28;20453;-69
2020/12/19 06:47:47;;;;;;;8.83;7.93;;;9.70;37.50;;;;;;5032656;28;20438;-69
2020/12/19 06:50:12;;;;;;;9.67;8.70;;;9.70;37.30;;;;;;5035033;28;20439;-69
2020/12/19 06:52:38;;;;;;;10.03;8.67;;;9.60;37.60;;;;;;5031330;28;20533;-70
2020/12/19 06:55:20;;;;;;;10.97;9.87;;;9.40;37.70;;;;;;5026201;28;20228;-68
2020/12/19 06:57:53;;;;;;;10.43;9.60;;;9.40;38.50;;;;;;5032641;28;20228;-68
2020/12/19 07:00:20;;;;;;;9.00;7.97;;;9.30;38.50;;;;;;5034718;28;20531;-69
2020/12/19 07:02:57;;;;;;;9.47;8.67;;;9.40;38.50;;;;;;5031382;28;20464;-68
2020/12/19 07:05:25;;;;;;;9.60;8.13;;;9.40;38.60;;;;;;5032879;28;20541;-69
2020/12/19 07:07:51;;;;;;;8.70;8.00;;;9.40;38.90;;;;;;5033072;28;20435;-69
2020/12/19 07:10:35;;;;;;;9.20;7.60;;;9.50;38.60;;;;;;5032048;28;20446;-68
2020/12/19 07:13:01;;;;;;;10.50;8.47;;;9.50;38.60;;;;;;5040050;28;20476;-68
2020/12/19 07:15:52;;;;;;;10.10;9.10;;;9.50;38.30;;;;;;5032764;28;20810;-68
2020/12/19 07:18:36;;;;;;;13.73;12.33;;;9.60;38.20;;;;;;5031413;28;20856;-68
2020/12/19 07:21:06;;;;;;;10.50;8.43;;;9.70;37.80;;;;;;5033543;28;20462;-68
2020/12/19 07:23:33;;;;;;;10.40;9.20;;;9.60;38.00;;;;;;5031574;28;20466;-69
2020/12/19 07:25:59;;;;;;;10.00;9.10;;;9.40;38.60;;;;;;5034365;28;20454;-69
2020/12/19 07:28:25;;;;;;;8.27;7.67;;;9.40;38.70;;;;;;5032241;28;20512;-68
2020/12/19 07:30:50;;;;;;;9.10;8.43;;;9.50;38.60;;;;;;5033966;28;20450;-70
2020/12/19 07:33:17;;;;;;;9.10;8.30;;;9.60;38.20;;;;;;5032209;28;20231;-67
2020/12/19 07:35:42;;;;;;;8.90;8.10;;;9.60;38.30;;;;;;5034013;28;20230;-68
2020/12/19 07:38:08;;;;;;;9.70;8.80;;;9.60;39.10;;;;;;5032261;28;21097;-69
2020/12/19 07:40:34;;;;;;;10.60;9.70;;;9.60;38.20;;;;;;5033897;28;20227;-68
2020/12/19 07:43:08;;;;;;;8.77;7.93;;;9.60;38.40;;;;;;5033069;28;20310;-69
2020/12/19 07:45:38;;;;;;;10.47;9.43;;;9.60;38.10;;;;;;5032845;28;20250;-69
2020/12/19 07:48:05;;;;;;;9.63;8.83;;;9.50;38.40;;;;;;5032021;28;20446;-70
2020/12/19 07:50:33;;;;;;;10.83;9.83;;;9.60;38.10;;;;;;5033769;28;20870;-70
2020/12/19 07:53:01;;;;;;;11.27;9.53;;;9.50;37.60;;;;;;5033314;28;20519;-68
2020/12/19 07:55:27;;;;;;;9.37;8.53;;;9.50;38.20;;;;;;5033020;28;20953;-71
2020/12/19 07:57:54;;;;;;;9.73;8.87;;;9.60;38.50;;;;;;5033423;28;20457;-69
2020/12/19 08:00:21;;;;;;;9.47;8.63;;;9.50;38.00;;;;;;5032098;28;22530;-68
2020/12/19 08:02:46;;;;;;;8.67;7.87;;;10.20;44.70;;;;;;5034022;28;20533;-68
2020/12/19 08:05:12;;;;;;;14.13;8.40;;;11.10;36.50;;;;;;5031819;28;20591;-68
2020/12/19 08:07:38;;;;;;;9.63;7.90;;;11.90;40.50;;;;;;5033100;28;20231;-67
2020/12/19 08:10:12;;;;;;;8.73;7.80;;;12.90;36.10;;;;;;5031885;28;20233;-67
2020/12/19 08:12:42;;;;;;;8.77;8.07;;;13.40;36.80;;;;;;5031819;28;20470;-68
2020/12/19 08:15:10;;;;;;;9.77;8.77;;;13.90;32.70;;;;;;5031532;28;20447;-69
2020/12/19 08:17:48;;;;;;;10.80;8.53;;;12.90;29.20;;;;;;5033495;28;20450;-69
2020/12/19 08:20:16;;;;;;;9.63;8.73;;;11.80;31.00;;;;;;5032250;28;20470;-71
2020/12/19 08:22:42;;;;;;;9.40;8.60;;;11.30;31.70;;;;;;5015475;28;20546;-68
2020/12/19 08:25:10;;;;;;;9.30;8.03;;;11.00;32.40;;;;;;5011085;28;20542;-68
2020/12/19 08:27:36;;;;;;;9.10;8.30;;;10.70;33.20;;;;;;5014032;28;20482;-71
2020/12/19 08:30:08;;;;;;;9.90;9.00;;;10.40;34.00;;;;;;5011618;28;20514;-70
2020/12/19 08:32:35;;;;;;;9.07;8.37;;;10.30;34.50;;;;;;5014100;28;20224;-67
2020/12/19 08:35:01;;;;;;;9.77;8.77;;;10.20;34.80;;;;;;5011946;28;20451;-71
2020/12/19 08:37:26;;;;;;;9.00;8.20;;;10.10;35.20;;;;;;5013449;28;20456;-70
2020/12/19 08:40:08;;;;;;;9.00;8.10;;;10.20;35.30;;;;;;5011529;28;20323;-71
2020/12/19 08:42:34;;;;;;;10.30;8.63;;;10.20;35.40;;;;;;5012908;28;20710;-67
2020/12/19 08:45:30;;;;;;;8.50;7.80;;;10.10;36.00;;;;;;5011897;28;20513;-68
2020/12/19 08:48:04;;;;;;;9.27;8.13;;;10.10;35.70;;;;;;5011420;28;20447;-71
2020/12/19 08:50:41;;;;;;;9.33;8.43;;;10.20;35.40;;;;;;5013383;28;21310;-68
2020/12/19 08:53:08;;;;;;;14.07;9.60;;;10.10;35.30;;;;;;5012889;28;21028;-68
2020/12/19 08:55:34;;;;;;;10.27;9.27;;;10.20;35.10;;;;;;5016677;28;20443;-69
2020/12/19 08:57:59;;;;;;;9.93;9.03;;;10.20;35.30;;;;;;5015271;28;20447;-68
2020/12/19 09:00:30;;;;;;;9.70;8.80;;;10.20;35.40;;;;;;5016732;28;20467;-68
2020/12/19 09:02:56;;;;;;;14.37;11.87;;;10.20;35.10;;;;;;5015647;28;20315;-68
2020/12/19 09:05:32;;;;;;;10.20;9.17;;;10.20;35.60;;;;;;5016644;28;20526;-68
2020/12/19 09:07:58;;;;;;;8.83;7.93;;;10.20;35.50;;;;;;5015514;28;20227;-67
2020/12/19 09:10:26;;;;;;;8.73;8.03;;;10.30;35.10;;;;;;5016403;28;20447;-68
2020/12/19 09:13:14;;;;;;;9.60;8.60;;;10.30;35.10;;;;;;5015070;28;20501;-71
2020/12/19 09:15:42;;;;;;;9.33;8.43;;;10.40;35.00;;;;;;5014798;28;20538;-68
2020/12/19 09:18:19;;;;;;;9.47;8.57;;;10.40;35.30;;;;;;5016695;28;20512;-70
2020/12/19 09:20:50;;;;;;;9.47;8.70;;;10.40;35.40;;;;;;5015481;28;20471;-69
2020/12/19 09:23:16;;;;;;;10.33;8.27;;;10.30;35.10;;;;;;5016547;28;20548;-70
2020/12/19 09:25:41;;;;;;;9.80;8.80;;;10.50;34.90;;;;;;5014914;28;20535;-70
2020/12/19 09:28:07;;;;;;;9.67;8.77;;;10.60;34.70;;;;;;5015961;28;20231;-68
2020/12/19 09:30:33;;;;;;;9.10;8.40;;;10.60;34.70;;;;;;5014771;28;20291;-69
2020/12/19 09:32:58;;;;;;;15.17;8.93;;;10.60;34.50;;;;;;5016013;28;20228;-71
2020/12/19 09:35:26;;;;;;;9.63;8.67;;;10.70;34.20;;;;;;5014439;28;20443;-71
2020/12/19 09:37:52;;;;;;;9.90;8.90;;;10.70;34.60;;;;;;5015996;28;20698;-70
2020/12/19 09:40:17;;;;;;;9.77;8.83;;;10.70;35.00;;;;;;5014697;28;20477;-70
2020/12/19 09:42:43;;;;;;;10.57;9.57;;;10.90;34.60;;;;;;5015687;28;20453;-70
2020/12/19 09:45:08;;;;;;;10.23;9.23;;;10.90;33.90;;;;;;5014681;28;20228;-69
2020/12/19 09:47:34;;;;;;;10.53;9.53;;;10.90;33.70;;;;;;5033398;28;20228;-70
2020/12/19 09:49:59;;;;;;;14.93;9.50;;;11.00;33.50;;;;;;5036273;28;20231;-70
2020/12/19 09:52:25;;;;;;;9.17;8.37;;;11.10;33.50;;;;;;5034837;28;20306;-70
2020/12/19 09:54:50;;;;;;;9.90;9.00;;;11.20;33.10;;;;;;5036358;28;21004;-70
2020/12/19 09:57:16;;;;;;;9.47;8.67;;;11.20;33.40;;;;;;5034528;28;20220;-69
2020/12/19 09:59:44;;;;;;;10.27;9.17;;;11.20;33.30;;;;;;5035775;28;20247;-71
2020/12/19 10:02:09;;;;;;;11.23;10.33;;;11.20;33.50;;;;;;5030665;28;20228;-70
2020/12/19 10:04:35;;;;;;;10.40;9.40;;;11.20;33.60;;;;;;5033467;28;21298;-71
2020/12/19 10:07:00;;;;;;;11.23;8.80;;;11.30;33.30;;;;;;5033997;28;20231;-72
2020/12/19 10:09:26;;;;;;;10.57;9.60;;;11.20;34.20;;;;;;5035232;28;20219;-70
2020/12/19 10:11:55;;;;;;;10.63;9.63;;;11.30;33.50;;;;;;5033732;28;20633;-70
2020/12/19 10:14:21;;;;;;;10.40;8.47;;;11.30;33.10;;;;;;5035239;28;20239;-69
2020/12/19 10:16:46;;;;;;;12.80;9.30;;;11.40;33.40;;;;;;5034787;28;20867;-68
2020/12/19 10:19:12;;;;;;;9.40;8.60;;;11.50;33.00;;;;;;5034214;28;21059;-72
2020/12/19 10:21:37;;;;;;;8.00;7.30;;;11.50;33.10;;;;;;5035112;28;20285;-69
2020/12/19 10:24:03;;;;;;;8.50;7.90;;;11.40;32.80;;;;;;5033582;28;20695;-71
2020/12/19 10:26:28;;;;;;;8.53;7.60;;;11.50;33.20;;;;;;5035291;28;20228;-71
2020/12/19 10:28:54;;;;;;;8.60;7.77;;;11.50;32.60;;;;;;5033692;28;20415;-70
2020/12/19 10:31:26;;;;;;;8.37;7.57;;;11.50;32.80;;;;;;5034670;28;20243;-70
2020/12/19 10:33:52;;;;;;;8.60;7.90;;;11.50;32.80;;;;;;5033665;28;20230;-71
2020/12/19 10:36:17;;;;;;;9.27;6.93;;;11.50;32.80;;;;;;5035032;28;20454;-68
2020/12/19 10:38:43;;;;;;;8.30;7.50;;;11.50;32.80;;;;;;5033339;28;20230;-68
2020/12/19 10:41:12;;;;;;;9.00;6.90;;;11.70;33.00;;;;;;5034924;28;20603;-67
2020/12/19 10:43:39;;;;;;;10.57;8.00;;;11.70;32.50;;;;;;5034442;28;20234;-68
2020/12/19 10:46:04;;;;;;;11.23;7.03;;;11.80;32.80;;;;;;5018122;28;20511;-69
2020/12/19 10:48:30;;;;;;;7.90;7.10;;;11.90;31.90;;;;;;5012913;28;20562;-66
2020/12/19 10:50:55;;;;;;;9.00;6.90;;;12.00;32.70;;;;;;5014274;28;20224;-66
2020/12/19 10:53:21;;;;;;;7.77;7.07;;;12.00;31.70;;;;;;5035910;28;20238;-67
2020/12/19 10:55:46;;;;;;;7.33;6.70;;;12.00;31.80;;;;;;5036336;28;20718;-68
2020/12/19 10:58:12;;;;;;;7.20;6.60;;;12.00;31.50;;;;;;5037135;28;20231;-68
2020/12/19 11:00:37;;;;;;;9.07;7.03;;;12.00;31.30;;;;;;5036456;28;20778;-67
2020/12/19 11:03:03;;;;;;;11.57;7.40;;;12.20;31.50;;;;;;5034864;28;20327;-68
2020/12/19 11:05:29;;;;;;;7.60;6.60;;;12.30;31.40;;;;;;5015955;28;20224;-68
2020/12/19 11:07:54;;;;;;;6.70;6.20;;;12.30;32.10;;;;;;5016340;28;20447;-68
2020/12/19 11:10:20;;;;;;;10.00;7.23;;;12.40;31.40;;;;;;5017236;28;20224;-67
2020/12/19 11:12:45;;;;;;;10.40;6.00;;;12.50;31.60;;;;;;5021981;28;20231;-68
2020/12/19 11:15:11;;;;;;;7.13;5.97;;;12.50;30.00;;;;;;5034413;28;20639;-70
2020/12/19 11:17:36;;;;;;;6.50;6.00;;;12.50;30.20;;;;;;5032620;28;20231;-70
2020/12/19 11:20:02;;;;;;;7.33;6.63;;;12.60;30.60;;;;;;5034775;28;20231;-70
2020/12/19 11:22:27;;;;;;;6.13;5.63;;;12.60;31.20;;;;;;5035367;28;20231;-68
2020/12/19 11:24:53;;;;;;;6.53;6.03;;;12.70;30.60;;;;;;5036288;28;20226;-68
2020/12/19 11:27:18;;;;;;;4.13;3.83;;;12.70;30.40;;;;;;5034063;28;20316;-69
2020/12/19 11:29:44;;;;;;;5.03;4.37;;;12.60;29.00;;;;;;5033669;28;20227;-69
2020/12/19 11:32:10;;;;;;;6.33;5.40;;;12.70;29.40;;;;;;5034951;28;20219;-69
2020/12/19 11:34:37;;;;;;;5.80;5.17;;;12.80;29.50;;;;;;5035026;28;20219;-71
2020/12/19 11:37:02;;;;;;;5.87;4.50;;;12.90;29.70;;;;;;5034359;28;20269;-70
2020/12/19 11:39:28;;;;;;;6.63;5.80;;;12.90;29.20;;;;;;5033306;28;20442;-73
2020/12/19 11:41:53;;;;;;;5.87;5.30;;;12.90;29.40;;;;;;5034228;28;20993;-70
2020/12/19 11:44:19;;;;;;;8.83;6.67;;;13.10;30.00;;;;;;5035470;28;20290;-67
2020/12/19 11:46:45;;;;;;;5.47;4.90;;;13.10;30.40;;;;;;5030663;28;20227;-68
2020/12/19 11:49:11;;;;;;;6.83;6.17;;;13.00;28.50;;;;;;5041189;28;20254;-68
2020/12/19 11:51:36;;;;;;;6.60;6.00;;;13.10;29.90;;;;;;5050237;28;20410;-67
2020/12/19 11:54:02;;;;;;;8.67;5.07;;;13.20;29.20;;;;;;5021159;28;20208;-70
2020/12/19 11:56:29;;;;;;;8.60;7.03;;;13.30;29.00;;;;;;5036316;28;20191;-67
2020/12/19 11:58:55;;;;;;;6.23;5.63;;;13.40;29.60;;;;;;5027300;28;20415;-69
2020/12/19 12:01:25;;;;;;;4.63;4.13;;;13.40;29.00;;;;;;5030376;28;20944;-68
2020/12/19 12:03:51;;;;;;;8.23;5.13;;;13.50;28.30;;;;;;5030630;28;20200;-67
2020/12/19 12:06:16;;;;;;;3.13;2.70;;;13.50;28.20;;;;;;5043706;28;20942;-69
2020/12/19 12:08:42;;;;;;;4.10;3.70;;;13.50;25.60;;;;;;5050003;28;20179;-70
2020/12/19 12:11:07;;;;;;;3.70;3.13;;;13.60;26.30;;;;;;5050529;28;20183;-68
2020/12/19 12:13:33;;;;;;;3.07;2.87;;;13.60;27.00;;;;;;5052042;28;20238;-69
2020/12/19 12:15:58;;;;;;;3.83;3.47;;;13.80;27.50;;;;;;5050078;28;20180;-69
2020/12/19 12:18:24;;;;;;;4.60;4.20;;;13.80;26.60;;;;;;5049616;28;20176;-71
2020/12/19 12:20:51;;;;;;;3.33;3.03;;;13.90;27.00;;;;;;5049630;28;20220;-68
2020/12/19 12:23:16;;;;;;;2.67;2.47;;;13.80;26.30;;;;;;5049715;28;20626;-71
2020/12/19 12:25:42;;;;;;;3.17;2.83;;;13.80;25.30;;;;;;5049875;28;20411;-71
2020/12/19 12:28:07;;;;;;;4.47;3.50;;;13.90;25.80;;;;;;5049963;28;20167;-70
2020/12/19 12:30:33;;;;;;;3.00;2.80;;;14.00;26.60;;;;;;5053127;28;20172;-69
2020/12/19 12:32:59;;;;;;;3.20;2.33;;;13.90;24.80;;;;;;5053405;28;20196;-66
2020/12/19 12:35:24;;;;;;;3.80;3.47;;;14.00;25.00;;;;;;5053803;28;20528;-70
2020/12/19 12:37:50;;;;;;;11.53;4.70;;;14.10;26.00;;;;;;5053233;28;20204;-71
2020/12/19 12:40:16;;;;;;;6.60;3.33;;;14.00;26.30;;;;;;5053030;28;20266;-69
2020/12/19 12:42:41;;;;;;;3.27;2.93;;;13.90;25.10;;;;;;5052991;28;20240;-70
2020/12/19 12:45:06;;;;;;;4.53;3.43;;;14.00;24.50;;;;;;5053147;28;20549;-71
2020/12/19 12:47:32;;;;;;;7.60;4.07;;;13.90;24.40;;;;;;5053149;28;20168;-69